Time;durP1;ratioP1;P1;durP2;ratioP2;P2;SDS_P1;SDS_P2;PMS_P1;PMS_P2;Temp;Humidity;BMP_temperature;BMP_pressure;BME280_temperature;BME280_humidity;BME280_pressure;Samples;Min_cycle;Max_cycle;Signal;HPM_P1;HPM_P2
2021/11/26 00:01:31;;;;;;;4.20;1.13;;;18.50;99.90;;;;;;5106029;28;20020;-69
2021/11/26 00:04:00;;;;;;;2.05;1.00;;;18.50;99.90;;;;;;5107376;28;20508;-69
2021/11/26 00:06:29;;;;;;;1.58;1.10;;;18.50;99.90;;;;;;5104911;28;20061;-70
2021/11/26 00:08:56;;;;;;;1.50;0.88;;;18.50;99.90;;;;;;5106597;28;20492;-69
2021/11/26 00:11:23;;;;;;;3.35;1.48;;;18.50;99.90;;;;;;5106777;28;20023;-71
2021/11/26 00:14:01;;;;;;;2.33;1.02;;;18.60;99.90;;;;;;5110877;28;20367;-72
2021/11/26 00:16:34;;;;;;;4.32;1.17;;;18.60;99.90;;;;;;5108174;28;20011;-71
2021/11/26 00:19:04;;;;;;;;;;;18.60;99.90;;;;;;5106444;28;20496;-67
2021/11/26 00:21:33;;;;;;;2.35;0.60;;;18.60;99.90;;;;;;5107373;28;20377;-67
2021/11/26 00:24:00;;;;;;;0.70;0.52;;;18.70;99.90;;;;;;5106675;28;20042;-72
2021/11/26 00:26:33;;;;;;;3.17;0.77;;;18.80;99.90;;;;;;5103508;28;20024;-68
2021/11/26 00:29:01;;;;;;;1.15;0.50;;;19.00;99.90;;;;;;5105626;28;20537;-69
2021/11/26 00:31:28;;;;;;;3.10;0.45;;;19.10;99.90;;;;;;5098925;28;20028;-68
2021/11/26 00:33:55;;;;;;;0.88;0.45;;;19.10;99.90;;;;;;5108990;28;20420;-70
2021/11/26 00:36:22;;;;;;;0.40;0.40;;;19.10;99.90;;;;;;5104584;28;21011;-69
2021/11/26 00:38:50;;;;;;;0.60;0.30;;;19.00;99.90;;;;;;5104484;28;20047;-69
2021/11/26 00:41:17;;;;;;;1.92;0.60;;;19.00;99.90;;;;;;5103248;28;20463;-69
2021/11/26 00:43:45;;;;;;;1.63;0.50;;;18.90;99.90;;;;;;5106309;28;20046;-68
2021/11/26 00:46:13;;;;;;;2.17;0.60;;;18.90;99.90;;;;;;5103304;28;20061;-67
2021/11/26 00:48:41;;;;;;;1.52;1.00;;;18.90;99.90;;;;;;5086019;28;20063;-68
2021/11/26 00:51:08;;;;;;;1.27;0.80;;;18.80;99.90;;;;;;5107231;28;20087;-67
2021/11/26 00:53:36;;;;;;;2.95;0.65;;;18.90;99.90;;;;;;5110507;28;20358;-66
2021/11/26 00:56:03;;;;;;;0.80;0.70;;;18.90;99.90;;;;;;5103251;28;20016;-70
2021/11/26 00:58:31;;;;;;;1.50;1.02;;;18.80;99.90;;;;;;5108804;28;20418;-69
2021/11/26 01:00:58;;;;;;;0.82;0.70;;;18.80;99.90;;;;;;5103186;28;20028;-68
2021/11/26 01:03:26;;;;;;;3.25;0.75;;;18.80;99.90;;;;;;5105303;28;20023;-69
2021/11/26 01:05:53;;;;;;;1.38;0.63;;;18.80;99.90;;;;;;5105387;28;21486;-70
2021/11/26 01:08:20;;;;;;;1.60;0.80;;;19.00;99.90;;;;;;5105368;28;20031;-70
2021/11/26 01:10:49;;;;;;;1.85;0.68;;;19.10;99.90;;;;;;5105449;28;20509;-67
2021/11/26 01:13:17;;;;;;;2.72;0.52;;;19.10;99.90;;;;;;5107223;28;20077;-66
2021/11/26 01:15:45;;;;;;;1.27;0.80;;;19.00;99.90;;;;;;5106328;28;20031;-68
2021/11/26 01:18:13;;;;;;;0.80;0.55;;;19.00;99.90;;;;;;5106197;28;20092;-70
2021/11/26 01:20:41;;;;;;;0.98;0.32;;;19.10;99.90;;;;;;5106288;28;20016;-68
2021/11/26 01:23:09;;;;;;;3.72;0.70;;;19.10;99.90;;;;;;5104424;28;20031;-67
2021/11/26 01:25:37;;;;;;;2.47;0.47;;;19.20;99.90;;;;;;5102413;28;20031;-68
2021/11/26 01:28:06;;;;;;;3.05;0.57;;;19.50;99.90;;;;;;5107349;28;20061;-66
2021/11/26 01:30:37;;;;;;;1.17;0.30;;;19.70;99.90;;;;;;5107970;28;20020;-70
2021/11/26 01:33:08;;;;;;;1.13;0.40;;;19.80;99.90;;;;;;5103866;28;20020;-66
2021/11/26 01:35:37;;;;;;;1.65;0.80;;;20.10;99.90;;;;;;5101644;28;20649;-66
2021/11/26 01:38:09;;;;;;;0.20;0.20;;;20.30;99.90;;;;;;5109492;28;20127;-68
2021/11/26 01:40:39;;;;;;;1.35;0.57;;;20.30;99.90;;;;;;5097315;28;20019;-68
2021/11/26 01:43:09;;;;;;;1.85;0.45;;;20.40;99.90;;;;;;4745793;28;9999816;-66
2021/11/26 01:45:49;;;;;;;0.90;0.65;;;20.40;99.90;;;;;;5086348;28;20015;-69
2021/11/26 01:48:17;;;;;;;1.20;0.65;;;20.40;99.90;;;;;;5098063;28;20028;-67
2021/11/26 01:50:46;;;;;;;1.20;0.40;;;20.40;99.90;;;;;;5097713;28;20027;-66
2021/11/26 01:53:14;;;;;;;0.45;0.32;;;20.70;99.90;;;;;;5101784;28;20031;-66
2021/11/26 01:55:42;;;;;;;0.65;0.30;;;20.70;99.90;;;;;;5093428;28;20024;-69
2021/11/26 01:58:12;;;;;;;0.50;0.30;;;20.80;99.90;;;;;;5098184;28;20031;-65
2021/11/26 02:00:43;;;;;;;0.60;0.50;;;20.20;99.90;;;;;;5091250;28;20755;-67
2021/11/26 02:03:10;;;;;;;1.02;0.65;;;19.70;99.90;;;;;;5098207;28;20020;-68
2021/11/26 02:05:38;;;;;;;1.85;0.80;;;19.50;99.90;;;;;;5080795;28;20020;-67
2021/11/26 02:08:07;;;;;;;0.60;0.60;;;19.60;99.90;;;;;;5094615;28;20020;-69
2021/11/26 02:10:34;;;;;;;0.70;0.70;;;19.80;99.90;;;;;;5090827;28;20016;-67
2021/11/26 02:13:02;;;;;;;0.80;0.80;;;19.90;99.90;;;;;;5097244;28;20028;-67
2021/11/26 02:15:30;;;;;;;1.88;1.27;;;19.90;99.90;;;;;;5095736;28;20016;-69
2021/11/26 02:18:00;;;;;;;1.58;1.48;;;20.10;99.90;;;;;;5094145;28;20362;-68
2021/11/26 02:20:29;;;;;;;3.17;1.88;;;20.30;99.90;;;;;;5098762;28;20051;-71
2021/11/26 02:22:58;;;;;;;2.33;1.63;;;20.10;99.90;;;;;;5100007;28;20409;-69
2021/11/26 02:25:28;;;;;;;1.50;1.40;;;20.20;99.90;;;;;;5099697;28;20020;-66
2021/11/26 02:28:00;;;;;;;2.03;1.83;;;20.40;99.90;;;;;;5093956;28;20068;-69
2021/11/26 02:30:28;;;;;;;1.80;1.60;;;20.40;99.90;;;;;;5091265;28;20035;-69
2021/11/26 02:32:59;;;;;;;2.60;1.65;;;20.30;99.90;;;;;;5096332;28;20034;-67
2021/11/26 02:35:29;;;;;;;2.00;1.52;;;20.50;99.90;;;;;;5098470;28;20478;-69
2021/11/26 02:37:57;;;;;;;3.63;1.50;;;20.20;99.90;;;;;;5093897;28;20024;-72
2021/11/26 02:40:26;;;;;;;2.88;1.70;;;20.40;99.90;;;;;;5091253;28;20012;-69
2021/11/26 02:42:54;;;;;;;1.98;1.42;;;20.50;99.90;;;;;;4742786;28;10000440;-68
2021/11/26 02:45:23;;;;;;;3.13;1.45;;;20.80;99.90;;;;;;5094128;28;20020;-67
2021/11/26 02:47:51;;;;;;;2.47;1.10;;;20.90;99.90;;;;;;5100382;28;20031;-66
2021/11/26 02:50:19;;;;;;;5.30;1.20;;;21.00;99.90;;;;;;5099359;28;20032;-66
2021/11/26 02:52:47;;;;;;;3.00;1.10;;;20.90;99.90;;;;;;5095873;28;20466;-72
2021/11/26 02:55:18;;;;;;;1.30;0.80;;;20.60;99.90;;;;;;5093532;28;20482;-68
2021/11/26 02:57:46;;;;;;;1.10;0.77;;;20.60;99.90;;;;;;5095312;28;20027;-70
2021/11/26 03:00:16;;;;;;;3.08;0.80;;;20.50;99.90;;;;;;5091660;28;20024;-69
2021/11/26 03:02:44;;;;;;;2.15;0.55;;;20.50;99.90;;;;;;5096117;28;20151;-74
2021/11/26 03:05:12;;;;;;;4.10;1.10;;;20.60;99.90;;;;;;5094026;28;20020;-69
2021/11/26 03:07:40;;;;;;;2.00;0.80;;;20.60;99.90;;;;;;5091565;28;20076;-73
2021/11/26 03:10:09;;;;;;;3.53;0.80;;;20.70;99.90;;;;;;5091134;28;20063;-68
2021/11/26 03:12:37;;;;;;;3.13;0.85;;;20.90;99.90;;;;;;5095267;28;20462;-68
2021/11/26 03:15:05;;;;;;;1.25;0.70;;;21.10;99.90;;;;;;5100993;28;20523;-72
2021/11/26 03:17:33;;;;;;;1.85;0.77;;;21.20;99.90;;;;;;5099689;28;20505;-68
2021/11/26 03:20:00;;;;;;;4.68;0.98;;;21.00;99.90;;;;;;5096093;28;20031;-70
2021/11/26 03:22:27;;;;;;;2.53;0.68;;;20.80;99.90;;;;;;5098320;28;20080;-67
2021/11/26 03:24:55;;;;;;;2.75;0.70;;;20.80;99.90;;;;;;5094224;28;20026;-70
2021/11/26 03:27:23;;;;;;;1.98;0.47;;;20.50;99.90;;;;;;5091329;28;20048;-68
2021/11/26 03:29:50;;;;;;;2.17;0.88;;;20.20;99.90;;;;;;5094812;28;20032;-70
2021/11/26 03:32:18;;;;;;;3.42;0.82;;;19.90;99.90;;;;;;5082184;28;20028;-68
2021/11/26 03:34:45;;;;;;;3.78;0.60;;;19.70;99.90;;;;;;5107795;28;20393;-67
2021/11/26 03:37:13;;;;;;;2.40;0.95;;;19.70;99.90;;;;;;5100780;28;20020;-67
2021/11/26 03:39:40;;;;;;;1.10;0.40;;;19.50;99.90;;;;;;5101031;28;20099;-73
2021/11/26 03:42:07;;;;;;;2.40;0.80;;;19.50;99.90;;;;;;5097808;28;20111;-68
2021/11/26 03:44:35;;;;;;;1.85;0.50;;;19.30;99.90;;;;;;5110073;28;20085;-69
2021/11/26 03:47:02;;;;;;;3.63;1.13;;;19.30;99.90;;;;;;5094217;28;20096;-69
2021/11/26 03:49:30;;;;;;;2.05;0.80;;;19.30;99.90;;;;;;5104561;28;20028;-69
2021/11/26 03:51:57;;;;;;;3.25;0.75;;;19.30;99.90;;;;;;5092988;28;20630;-70
2021/11/26 03:54:25;;;;;;;2.78;0.55;;;19.20;99.90;;;;;;5107534;28;20019;-71
2021/11/26 03:56:53;;;;;;;1.38;0.50;;;18.90;99.90;;;;;;5086855;28;20405;-69
2021/11/26 03:59:21;;;;;;;2.95;0.80;;;18.80;99.90;;;;;;5083819;28;20077;-71
2021/11/26 04:01:48;;;;;;;2.15;0.77;;;18.80;99.90;;;;;;5092584;28;20024;-75
2021/11/26 04:04:15;;;;;;;3.45;0.75;;;18.80;99.90;;;;;;5106490;28;20036;-69
2021/11/26 04:06:43;;;;;;;6.65;1.58;;;18.80;99.90;;;;;;5097282;28;20020;-73
2021/11/26 04:09:10;;;;;;;5.85;1.35;;;18.70;99.90;;;;;;5103498;28;20023;-73
2021/11/26 04:11:37;;;;;;;1.65;0.75;;;18.80;99.90;;;;;;5093353;28;20024;-74
2021/11/26 04:14:05;;;;;;;5.80;1.00;;;18.70;99.90;;;;;;5100000;28;20020;-74
2021/11/26 04:16:34;;;;;;;2.55;0.80;;;18.50;99.90;;;;;;5092599;28;20016;-73
2021/11/26 04:19:02;;;;;;;4.55;1.10;;;18.40;99.90;;;;;;5092194;28;20031;-69
2021/11/26 04:21:29;;;;;;;4.80;1.50;;;18.30;99.90;;;;;;5092488;28;20412;-67
2021/11/26 04:23:57;;;;;;;4.18;1.00;;;18.10;99.90;;;;;;5102610;28;20486;-69
2021/11/26 04:26:25;;;;;;;3.33;1.10;;;18.10;99.90;;;;;;5095145;28;20024;-68
2021/11/26 04:28:52;;;;;;;5.18;1.50;;;18.00;99.90;;;;;;5081237;28;20058;-71
2021/11/26 04:31:19;;;;;;;3.63;1.33;;;18.00;99.90;;;;;;5098845;28;20055;-70
2021/11/26 04:33:48;;;;;;;6.38;1.40;;;18.00;99.90;;;;;;5099371;28;20014;-74
2021/11/26 04:36:15;;;;;;;4.18;1.42;;;18.00;99.90;;;;;;4742078;28;10000229;-73
2021/11/26 04:38:43;;;;;;;4.43;1.23;;;18.00;99.90;;;;;;5088936;28;20020;-67
2021/11/26 04:41:10;;;;;;;5.35;1.45;;;17.90;99.90;;;;;;5088698;28;20468;-67
2021/11/26 04:43:37;;;;;;;4.88;1.20;;;17.90;99.90;;;;;;5094032;28;20512;-69
2021/11/26 04:46:04;;;;;;;3.53;1.20;;;17.80;99.90;;;;;;5093638;28;20047;-73
2021/11/26 04:48:31;;;;;;;5.45;1.70;;;17.80;99.90;;;;;;5097965;28;20028;-71
2021/11/26 04:50:59;;;;;;;2.38;1.52;;;17.80;99.90;;;;;;5089867;28;20069;-71
2021/11/26 04:53:26;;;;;;;3.55;1.20;;;17.60;99.90;;;;;;5099537;28;20034;-72
2021/11/26 04:55:53;;;;;;;3.00;1.23;;;17.60;99.90;;;;;;5092325;28;20038;-70
2021/11/26 04:58:20;;;;;;;5.45;1.63;;;17.60;99.90;;;;;;5093189;28;20027;-72
2021/11/26 05:00:47;;;;;;;3.90;0.95;;;17.60;99.90;;;;;;5092340;28;20015;-69
2021/11/26 05:03:15;;;;;;;3.30;1.10;;;17.60;99.90;;;;;;5092402;28;20132;-68
2021/11/26 05:05:42;;;;;;;1.98;1.10;;;17.60;99.90;;;;;;5101537;28;20031;-71
2021/11/26 05:08:09;;;;;;;2.35;0.95;;;17.60;99.90;;;;;;5101617;28;20474;-71
2021/11/26 05:10:36;;;;;;;1.98;0.90;;;17.60;99.90;;;;;;5098034;28;20023;-72
2021/11/26 05:13:05;;;;;;;2.10;1.00;;;17.50;99.90;;;;;;5092727;28;20031;-71
2021/11/26 05:15:32;;;;;;;3.17;1.00;;;17.40;99.90;;;;;;5094020;28;20026;-71
2021/11/26 05:18:02;;;;;;;5.50;1.30;;;17.30;99.90;;;;;;5088490;28;20348;-70
2021/11/26 05:20:32;;;;;;;1.33;0.73;;;17.30;99.90;;;;;;5095886;28;20072;-71
2021/11/26 05:23:00;;;;;;;4.10;1.35;;;17.20;99.90;;;;;;5093632;28;20069;-71
2021/11/26 05:25:28;;;;;;;3.10;1.50;;;17.20;99.90;;;;;;5087325;28;20028;-71
2021/11/26 05:27:56;;;;;;;5.18;1.52;;;17.20;99.90;;;;;;4898409;28;5360063;-72
2021/11/26 05:30:24;;;;;;;2.40;1.08;;;17.20;99.90;;;;;;5096991;28;20023;-70
2021/11/26 05:32:51;;;;;;;3.17;1.25;;;17.20;99.90;;;;;;5100186;28;20077;-70
2021/11/26 05:35:19;;;;;;;3.22;1.10;;;17.20;99.90;;;;;;5097519;28;20031;-72
2021/11/26 05:37:47;;;;;;;3.70;1.48;;;17.20;99.90;;;;;;5087486;28;20031;-72
2021/11/26 05:40:16;;;;;;;2.15;1.08;;;17.10;99.90;;;;;;5093122;28;20024;-71
2021/11/26 05:42:44;;;;;;;5.60;1.65;;;17.10;99.90;;;;;;5094365;28;20027;-71
2021/11/26 05:45:13;;;;;;;3.08;1.50;;;17.10;99.90;;;;;;5092541;28;20039;-72
2021/11/26 05:47:40;;;;;;;2.75;2.00;;;17.10;99.90;;;;;;5098735;28;20043;-68
2021/11/26 05:50:11;;;;;;;4.75;1.08;;;17.10;99.90;;;;;;5097268;28;20028;-68
2021/11/26 05:52:38;;;;;;;3.05;1.10;;;17.00;99.90;;;;;;5100807;28;20038;-68
2021/11/26 05:55:09;;;;;;;2.30;1.13;;;17.00;99.90;;;;;;5096030;28;20046;-69
2021/11/26 05:57:37;;;;;;;2.40;1.15;;;17.00;99.90;;;;;;5097144;28;20016;-69
2021/11/26 06:00:10;;;;;;;3.10;1.13;;;17.10;99.90;;;;;;5095425;28;20497;-69
2021/11/26 06:02:37;;;;;;;2.72;1.98;;;17.10;99.90;;;;;;5099063;28;20034;-69
2021/11/26 06:05:05;;;;;;;2.80;1.30;;;17.20;99.90;;;;;;5077395;28;20027;-69
2021/11/26 06:07:34;;;;;;;3.13;1.38;;;17.20;99.90;;;;;;5091354;28;20027;-69
2021/11/26 06:10:03;;;;;;;3.75;1.13;;;17.60;99.90;;;;;;5091940;28;20036;-69
2021/11/26 06:12:30;;;;;;;4.53;2.90;;;17.70;99.90;;;;;;5098078;28;20493;-71
2021/11/26 06:14:57;;;;;;;4.53;3.78;;;17.80;99.90;;;;;;5098323;28;20020;-71
2021/11/26 06:17:24;;;;;;;4.93;1.42;;;17.80;99.90;;;;;;5093242;28;20119;-69
2021/11/26 06:19:52;;;;;;;1.75;1.10;;;17.80;99.90;;;;;;5099525;28;20789;-69
2021/11/26 06:22:19;;;;;;;3.25;1.20;;;17.90;99.90;;;;;;5099812;28;20675;-70
2021/11/26 06:24:46;;;;;;;2.45;1.17;;;17.80;99.90;;;;;;5099737;28;20039;-69
2021/11/26 06:27:14;;;;;;;2.13;1.30;;;17.60;99.90;;;;;;5100302;28;20047;-68
2021/11/26 06:29:41;;;;;;;2.72;1.40;;;17.50;99.90;;;;;;5097242;28;20593;-69
2021/11/26 06:32:08;;;;;;;1.83;1.33;;;17.40;99.90;;;;;;5100531;28;20754;-69
2021/11/26 06:34:35;;;;;;;5.82;1.70;;;17.70;99.90;;;;;;5092115;28;20016;-70
2021/11/26 06:37:03;;;;;;;2.20;1.27;;;18.00;99.90;;;;;;5099672;28;20030;-69
2021/11/26 06:39:30;;;;;;;2.90;1.50;;;18.10;99.90;;;;;;5099236;28;20020;-69
2021/11/26 06:41:59;;;;;;;1.13;1.02;;;18.00;99.90;;;;;;5096543;28;20047;-69
2021/11/26 06:44:26;;;;;;;2.83;1.33;;;17.80;99.90;;;;;;5097460;28;20045;-72
2021/11/26 06:46:53;;;;;;;4.68;2.40;;;17.60;99.90;;;;;;5097484;28;20023;-67
2021/11/26 06:49:21;;;;;;;3.88;1.77;;;17.50;99.90;;;;;;5084036;28;20043;-66
2021/11/26 06:51:48;;;;;;;2.55;1.33;;;17.40;99.90;;;;;;5102805;28;20028;-66
2021/11/26 06:54:15;;;;;;;3.63;1.50;;;17.30;99.90;;;;;;5102962;28;20031;-66
2021/11/26 06:56:42;;;;;;;4.63;1.38;;;17.20;99.90;;;;;;5101304;28;20485;-68
2021/11/26 06:59:09;;;;;;;2.55;1.10;;;17.10;99.90;;;;;;5104971;28;20104;-68
2021/11/26 07:01:36;;;;;;;3.35;1.20;;;17.00;99.90;;;;;;5100311;28;20034;-69
2021/11/26 07:04:05;;;;;;;2.00;0.98;;;16.90;99.90;;;;;;5100450;28;20031;-68
2021/11/26 07:06:33;;;;;;;2.65;1.10;;;16.80;99.90;;;;;;5101494;28;20024;-67
2021/11/26 07:09:00;;;;;;;2.72;1.10;;;16.80;99.90;;;;;;5099245;28;20131;-69
2021/11/26 07:11:27;;;;;;;1.85;1.05;;;16.80;99.90;;;;;;5100779;28;20408;-67
2021/11/26 07:13:55;;;;;;;2.60;1.00;;;16.70;99.90;;;;;;5103030;28;20016;-73
2021/11/26 07:16:22;;;;;;;1.42;0.85;;;16.70;99.90;;;;;;5102910;28;20026;-69
2021/11/26 07:18:49;;;;;;;2.20;1.00;;;16.70;99.90;;;;;;5100461;28;20495;-69
2021/11/26 07:21:16;;;;;;;3.75;1.05;;;16.60;99.90;;;;;;5101112;28;20027;-67
2021/11/26 07:23:43;;;;;;;4.43;1.15;;;16.70;99.90;;;;;;5102815;28;20024;-67
2021/11/26 07:26:11;;;;;;;2.08;1.15;;;16.70;99.90;;;;;;5101024;28;20084;-69
2021/11/26 07:28:38;;;;;;;2.25;1.10;;;16.70;99.90;;;;;;5081132;28;20046;-69
2021/11/26 07:31:05;;;;;;;1.15;0.95;;;16.60;99.90;;;;;;5100330;28;20031;-69
2021/11/26 07:33:33;;;;;;;2.47;1.13;;;16.70;99.90;;;;;;5086750;28;20389;-69
2021/11/26 07:36:00;;;;;;;2.42;1.60;;;16.70;99.90;;;;;;5097968;28;20050;-69
2021/11/26 07:38:27;;;;;;;3.05;1.20;;;16.70;99.90;;;;;;5105004;28;20091;-67
2021/11/26 07:40:56;;;;;;;2.80;1.30;;;16.70;99.90;;;;;;5099758;28;20470;-69
2021/11/26 07:43:23;;;;;;;4.20;1.15;;;16.70;99.90;;;;;;5101861;28;20022;-66
2021/11/26 07:45:50;;;;;;;2.22;1.10;;;16.70;99.90;;;;;;5102121;28;20406;-70
2021/11/26 07:48:18;;;;;;;3.53;0.80;;;16.60;99.90;;;;;;5096377;28;20077;-68
2021/11/26 07:50:46;;;;;;;2.50;0.70;;;16.60;99.90;;;;;;5102650;28;20024;-67
2021/11/26 07:53:13;;;;;;;4.70;0.88;;;16.50;99.90;;;;;;5102173;28;20107;-68
2021/11/26 07:55:40;;;;;;;2.85;0.68;;;16.50;99.90;;;;;;5100236;28;20027;-71
2021/11/26 07:58:11;;;;;;;1.05;0.75;;;16.50;99.90;;;;;;5103532;28;20023;-69
2021/11/26 08:00:38;;;;;;;1.67;0.90;;;16.50;99.90;;;;;;5101745;28;20492;-67
2021/11/26 08:03:06;;;;;;;1.38;0.80;;;16.50;99.90;;;;;;5101973;28;21501;-69
2021/11/26 08:05:33;;;;;;;2.45;1.10;;;16.50;99.90;;;;;;5102765;28;20055;-70
2021/11/26 08:08:01;;;;;;;0.88;0.75;;;16.50;99.90;;;;;;5102284;28;20020;-71
2021/11/26 08:10:28;;;;;;;1.25;0.90;;;16.50;99.90;;;;;;5082256;28;20073;-68
2021/11/26 08:12:56;;;;;;;4.15;1.10;;;16.60;99.90;;;;;;5095356;28;20445;-67
2021/11/26 08:15:23;;;;;;;1.75;1.00;;;16.50;99.90;;;;;;5102152;28;20015;-71
2021/11/26 08:17:50;;;;;;;2.72;1.33;;;16.50;99.90;;;;;;5099865;28;20186;-64
2021/11/26 08:20:18;;;;;;;2.17;0.85;;;16.50;99.90;;;;;;5103034;28;20126;-72
2021/11/26 08:22:47;;;;;;;2.28;1.00;;;16.40;99.90;;;;;;5105728;28;20425;-68
2021/11/26 08:25:15;;;;;;;3.83;1.13;;;16.30;99.90;;;;;;5086524;28;20568;-66
2021/11/26 08:27:43;;;;;;;3.45;1.05;;;16.30;99.90;;;;;;5105756;28;20617;-68
2021/11/26 08:30:11;;;;;;;1.80;1.35;;;16.20;99.90;;;;;;5108490;28;20055;-69
2021/11/26 08:32:39;;;;;;;4.13;1.15;;;16.20;99.90;;;;;;5083499;28;20027;-65
2021/11/26 08:35:07;;;;;;;2.35;1.10;;;16.20;99.90;;;;;;5103418;28;20031;-68
2021/11/26 08:37:34;;;;;;;3.53;1.42;;;16.20;99.90;;;;;;5105320;28;20513;-67
2021/11/26 08:40:03;;;;;;;2.22;1.40;;;16.20;99.90;;;;;;5088357;28;20377;-69
2021/11/26 08:42:30;;;;;;;2.50;1.40;;;16.20;99.90;;;;;;5104325;28;20028;-69
2021/11/26 08:44:57;;;;;;;4.38;2.67;;;16.20;99.90;;;;;;5106124;28;20046;-70
2021/11/26 08:47:25;;;;;;;2.10;1.30;;;16.10;99.90;;;;;;5103239;28;20020;-68
2021/11/26 08:49:53;;;;;;;3.55;1.27;;;16.10;99.90;;;;;;5106175;28;20039;-69
2021/11/26 08:52:20;;;;;;;2.08;1.25;;;16.10;99.90;;;;;;5101025;28;20016;-71
2021/11/26 08:54:48;;;;;;;2.90;1.30;;;16.10;99.90;;;;;;5102682;28;20024;-70
2021/11/26 08:57:17;;;;;;;4.40;1.52;;;16.10;99.90;;;;;;5105848;28;20026;-71
2021/11/26 08:59:44;;;;;;;8.65;1.20;;;16.00;99.90;;;;;;5102061;28;20024;-69
2021/11/26 09:02:13;;;;;;;3.80;1.08;;;16.10;99.90;;;;;;5101705;28;20268;-70
2021/11/26 09:04:40;;;;;;;2.22;1.20;;;16.10;99.90;;;;;;5103496;28;20027;-77
2021/11/26 09:07:07;;;;;;;2.85;1.33;;;16.00;99.90;;;;;;5098061;28;20058;-71
2021/11/26 09:09:34;;;;;;;5.10;1.60;;;16.10;99.90;;;;;;5099254;28;20106;-69
2021/11/26 09:12:03;;;;;;;1.88;1.45;;;16.10;99.90;;;;;;5098269;28;20024;-68
2021/11/26 09:14:32;;;;;;;4.75;1.40;;;16.10;99.90;;;;;;5093356;28;20048;-68
2021/11/26 09:16:59;;;;;;;2.63;1.40;;;16.00;99.90;;;;;;5095920;28;20031;-69
2021/11/26 09:19:26;;;;;;;4.50;1.67;;;16.10;99.90;;;;;;5088531;28;20080;-68
2021/11/26 09:21:53;;;;;;;3.65;1.55;;;16.00;99.90;;;;;;5092331;28;20031;-66
2021/11/26 09:24:21;;;;;;;5.28;1.77;;;16.00;99.90;;;;;;5088965;28;20031;-66
2021/11/26 09:26:48;;;;;;;6.20;1.50;;;15.90;99.90;;;;;;5088221;28;20068;-68
2021/11/26 09:29:15;;;;;;;4.72;1.73;;;15.90;99.90;;;;;;5091235;28;20547;-67
2021/11/26 09:31:42;;;;;;;5.10;1.70;;;15.80;99.90;;;;;;5097583;28;20084;-66
2021/11/26 09:34:09;;;;;;;4.40;1.73;;;15.80;99.90;;;;;;4748994;28;10000407;-68
2021/11/26 09:36:37;;;;;;;3.70;1.20;;;15.80;99.90;;;;;;5089168;28;20490;-68
2021/11/26 09:39:06;;;;;;;4.07;1.35;;;15.70;99.90;;;;;;5088227;28;20498;-70
2021/11/26 09:41:33;;;;;;;4.50;1.50;;;15.70;99.90;;;;;;5085800;28;20024;-68
2021/11/26 09:44:03;;;;;;;4.53;1.48;;;15.80;99.90;;;;;;5090835;28;20043;-69
2021/11/26 09:46:34;;;;;;;4.88;1.63;;;15.80;99.90;;;;;;5093440;28;20061;-68
2021/11/26 09:49:03;;;;;;;6.30;2.25;;;15.80;99.90;;;;;;5090826;28;20032;-70
2021/11/26 09:51:30;;;;;;;3.28;1.52;;;15.80;99.90;;;;;;5092097;28;20019;-67
2021/11/26 09:53:58;;;;;;;6.20;2.15;;;15.90;99.90;;;;;;5098333;28;20069;-69
2021/11/26 09:56:25;;;;;;;3.78;1.60;;;15.90;99.90;;;;;;5094449;28;20037;-68
2021/11/26 09:58:52;;;;;;;3.75;2.08;;;15.90;99.90;;;;;;5096585;28;20028;-68
2021/11/26 10:01:20;;;;;;;3.22;1.23;;;15.90;99.90;;;;;;5086655;28;20527;-68
2021/11/26 10:03:50;;;;;;;6.28;1.80;;;15.90;99.90;;;;;;5097822;28;20093;-68
2021/11/26 10:06:24;;;;;;;5.63;2.10;;;15.90;99.90;;;;;;5088451;28;20028;-67
2021/11/26 10:09:12;;;;;;;4.45;1.75;;;15.90;99.90;;;;;;5093563;28;20169;-67
2021/11/26 10:11:45;;;;;;;5.93;1.60;;;15.80;99.90;;;;;;5090740;28;20027;-67
2021/11/26 10:14:25;;;;;;;4.55;1.42;;;15.80;99.90;;;;;;5068298;28;20575;-71
2021/11/26 10:17:03;;;;;;;6.28;1.33;;;15.90;99.90;;;;;;5093054;28;20757;-68
2021/11/26 10:19:45;;;;;;;8.63;1.55;;;15.80;99.90;;;;;;5086035;28;20547;-65
2021/11/26 10:22:47;;;;;;;4.35;1.50;;;15.90;99.90;;;;;;5090247;28;20138;-66
2021/11/26 10:25:20;;;;;;;5.28;1.38;;;15.90;99.90;;;;;;5074148;28;20055;-67
2021/11/26 10:27:48;;;;;;;7.03;1.88;;;15.90;99.90;;;;;;4772142;22;10001265;-68
2021/11/26 10:30:20;;;;;;;8.07;1.77;;;15.90;99.90;;;;;;5052612;28;20024;-68
2021/11/26 10:32:57;;;;;;;7.20;2.42;;;15.90;99.90;;;;;;5064688;28;20058;-67
2021/11/26 10:35:50;;;;;;;5.07;1.90;;;15.90;99.90;;;;;;5075404;28;20530;-68
2021/11/26 10:38:21;;;;;;;4.85;1.30;;;15.80;99.90;;;;;;5062152;28;20741;-66
2021/11/26 10:40:53;;;;;;;4.82;1.40;;;15.80;99.90;;;;;;5064688;28;20020;-67
2021/11/26 10:43:27;;;;;;;5.17;1.07;;;15.80;99.90;;;;;;5065160;28;20028;-69
2021/11/26 10:59:31;;;;;;;5.55;1.70;;;15.60;99.90;;;;;;5071431;28;20105;-69
2021/11/26 11:01:58;;;;;;;5.53;1.77;;;15.60;99.90;;;;;;5079163;28;20032;-68
2021/11/26 11:04:32;;;;;;;5.63;1.63;;;15.50;99.90;;;;;;5076102;28;20027;-70
2021/11/26 11:07:08;;;;;;;4.18;1.75;;;15.50;99.90;;;;;;5012460;28;20048;-69
2021/11/26 11:10:03;;;;;;;5.72;1.60;;;15.50;99.90;;;;;;5066843;28;20028;-71
2021/11/26 11:12:35;;;;;;;8.45;1.85;;;15.50;99.90;;;;;;5073713;28;20044;-68
2021/11/26 11:15:05;;;;;;;3.88;1.30;;;15.50;99.90;;;;;;5070622;28;20108;-67
2021/11/26 11:17:33;;;;;;;3.75;1.63;;;15.50;99.90;;;;;;5075870;28;20016;-68
2021/11/26 11:20:05;;;;;;;9.27;1.65;;;15.60;99.90;;;;;;5074853;28;20020;-70
2021/11/26 11:22:34;;;;;;;6.00;1.50;;;15.50;99.90;;;;;;5065397;28;20028;-71
2021/11/26 11:25:02;;;;;;;7.25;2.00;;;15.40;99.90;;;;;;5073008;28;20517;-70
2021/11/26 11:27:30;;;;;;;4.65;1.42;;;15.30;99.90;;;;;;5068085;28;20040;-71
2021/11/26 11:29:58;;;;;;;8.05;1.80;;;15.30;99.90;;;;;;5067610;28;20028;-71
2021/11/26 11:32:26;;;;;;;8.75;1.92;;;15.30;99.90;;;;;;5065638;28;20032;-72
2021/11/26 11:34:55;;;;;;;11.27;2.35;;;15.40;99.90;;;;;;5066340;28;20024;-70
2021/11/26 11:37:28;;;;;;;7.90;1.77;;;15.40;99.90;;;;;;5067966;28;20017;-67
2021/11/26 11:40:06;;;;;;;6.20;1.92;;;15.50;99.90;;;;;;5072817;28;20025;-68
2021/11/26 11:42:43;;;;;;;6.60;1.92;;;15.50;99.90;;;;;;5072674;28;20021;-69
2021/11/26 11:45:12;;;;;;;7.10;1.63;;;15.40;99.90;;;;;;5073071;28;20032;-70
2021/11/26 11:47:52;;;;;;;10.13;2.08;;;15.40;99.90;;;;;;5069416;28;20103;-69
2021/11/26 11:50:25;;;;;;;7.72;2.25;;;15.40;99.90;;;;;;5072652;28;20020;-68
2021/11/26 11:53:01;;;;;;;6.95;1.60;;;15.40;99.90;;;;;;5064440;28;20147;-68
2021/11/26 11:55:33;;;;;;;11.93;2.17;;;15.40;99.90;;;;;;5076028;28;20138;-68
2021/11/26 11:58:24;;;;;;;9.27;2.80;;;15.40;99.90;;;;;;5070165;28;20245;-70
2021/11/26 12:00:54;;;;;;;11.10;2.38;;;15.40;99.90;;;;;;5080184;28;20024;-68
2021/11/26 12:03:24;;;;;;;14.52;3.15;;;15.40;99.90;;;;;;5082492;28;20181;-68
2021/11/26 12:06:04;;;;;;;8.73;2.67;;;15.40;99.90;;;;;;5087630;28;20106;-67
2021/11/26 12:08:44;;;;;;;9.88;2.35;;;15.40;99.90;;;;;;5069127;28;20028;-69
2021/11/26 12:11:30;;;;;;;7.47;2.20;;;15.50;99.90;;;;;;5070567;28;20036;-68
2021/11/26 12:14:09;;;;;;;9.65;2.95;;;15.50;99.90;;;;;;5083671;28;20042;-68
2021/11/26 12:19:42;;;;;;;12.18;2.67;;;15.60;99.90;;;;;;5072113;28;20132;-68
2021/11/26 12:22:28;;;;;;;11.73;2.53;;;15.60;99.90;;;;;;5077327;28;20024;-68
2021/11/26 12:24:57;;;;;;;8.80;2.85;;;15.60;99.90;;;;;;5086024;28;20027;-68
2021/11/26 12:27:27;;;;;;;10.18;2.58;;;15.60;99.90;;;;;;5093024;28;20039;-69
2021/11/26 12:29:56;;;;;;;11.27;3.85;;;15.60;99.90;;;;;;5087187;28;20102;-68
2021/11/26 12:32:30;;;;;;;11.85;3.13;;;15.60;99.90;;;;;;5069253;28;20546;-69
2021/11/26 12:35:09;;;;;;;9.95;2.47;;;15.60;99.90;;;;;;5071200;28;20029;-68
2021/11/26 12:37:36;;;;;;;14.40;3.22;;;15.60;99.90;;;;;;5094197;28;20040;-69
2021/11/26 12:40:11;;;;;;;15.75;3.70;;;15.70;99.90;;;;;;5087765;28;20017;-69
2021/11/26 12:42:40;;;;;;;9.13;3.08;;;15.70;99.90;;;;;;5086697;28;20024;-72
2021/11/26 12:45:12;;;;;;;11.00;4.13;;;15.80;99.90;;;;;;5074214;28;20025;-69
2021/11/26 12:47:48;;;;;;;13.73;3.27;;;15.80;99.90;;;;;;5071634;28;20070;-68
2021/11/26 12:53:05;;;;;;;16.20;4.25;;;15.80;99.90;;;;;;5078521;28;20031;-68
2021/11/26 12:55:35;;;;;;;22.00;4.55;;;15.80;99.90;;;;;;5078656;28;20433;-68
2021/11/26 12:58:02;;;;;;;14.05;3.85;;;15.80;99.90;;;;;;5094612;28;20052;-68
2021/11/26 13:00:32;;;;;;;20.77;4.07;;;15.80;99.90;;;;;;5074454;28;20024;-68
2021/11/26 13:03:09;;;;;;;13.77;3.22;;;15.80;99.90;;;;;;5076838;28;20128;-69
2021/11/26 13:05:36;;;;;;;13.65;3.42;;;15.80;99.90;;;;;;5070023;28;20521;-69
2021/11/26 13:08:05;;;;;;;16.95;4.10;;;15.80;99.90;;;;;;5070231;28;20151;-69
2021/11/26 13:10:32;;;;;;;13.77;3.95;;;15.80;99.90;;;;;;5052026;28;20029;-68
2021/11/26 13:13:00;;;;;;;12.70;3.35;;;15.90;99.90;;;;;;5069752;28;20504;-68
2021/11/26 13:15:45;;;;;;;22.77;4.55;;;15.90;99.90;;;;;;5069974;28;20013;-68